createdAt,value
2023-11-18T00:01:53.648Z,4.10
2023-11-18T00:04:20.655Z,4.20
2023-11-18T00:06:48.144Z,4.20
2023-11-18T00:09:15.920Z,4.20
2023-11-18T00:11:43.850Z,4.20
2023-11-18T00:14:12.632Z,4.20
2023-11-18T00:16:40.112Z,4.20
2023-11-18T00:19:07.373Z,4.20
2023-11-18T00:21:34.579Z,4.20
2023-11-18T00:24:01.710Z,4.20
2023-11-18T00:26:28.677Z,4.20
2023-11-18T00:29:01.682Z,4.20
2023-11-18T00:31:29.089Z,4.20
2023-11-18T00:33:56.400Z,4.20
2023-11-18T00:36:23.443Z,4.20
2023-11-18T00:38:50.526Z,4.20
2023-11-18T00:41:18.790Z,4.20
2023-11-18T00:43:46.006Z,4.20
2023-11-18T00:46:13.030Z,4.20
2023-11-18T00:48:40.253Z,4.20
2023-11-18T00:51:07.824Z,4.20
2023-11-18T00:53:35.009Z,4.20
2023-11-18T00:56:02.924Z,4.20
2023-11-18T00:58:30.315Z,4.20
2023-11-18T01:00:57.426Z,4.20
2023-11-18T01:03:24.420Z,4.20
2023-11-18T01:05:51.699Z,4.20
2023-11-18T01:08:19.606Z,4.20
2023-11-18T01:10:46.758Z,4.20
2023-11-18T01:13:13.793Z,4.20
2023-11-18T01:15:40.856Z,4.20
2023-11-18T01:18:07.929Z,4.20
2023-11-18T01:20:35.636Z,4.20
2023-11-18T01:23:02.648Z,4.20
2023-11-18T01:25:30.727Z,4.20
2023-11-18T01:27:57.757Z,4.20
2023-11-18T01:30:25.154Z,4.20
2023-11-18T01:32:52.402Z,4.20
2023-11-18T01:35:20.789Z,4.20
2023-11-18T01:37:49.333Z,4.20
2023-11-18T01:40:17.529Z,4.20
2023-11-18T01:42:48.210Z,4.20
2023-11-18T01:45:15.508Z,4.20
2023-11-18T01:47:42.989Z,4.20
2023-11-18T01:50:13.823Z,4.20
2023-11-18T01:52:44.940Z,4.20
2023-11-18T01:55:14.665Z,4.20
2023-11-18T01:57:45.645Z,4.20
2023-11-18T02:00:14.161Z,4.20
2023-11-18T02:02:42.670Z,4.20
2023-11-18T02:05:09.949Z,4.30
2023-11-18T02:07:38.586Z,4.20
2023-11-18T02:10:10.508Z,4.20
2023-11-18T02:13:03.554Z,4.20
2023-11-18T02:15:33.097Z,4.20
2023-11-18T02:18:03.200Z,4.20
2023-11-18T02:20:31.345Z,4.20
2023-11-18T02:23:00.126Z,4.20
2023-11-18T02:25:29.944Z,4.20
2023-11-18T02:27:58.051Z,4.20
2023-11-18T02:30:25.132Z,4.20
2023-11-18T02:33:08.666Z,4.20
2023-11-18T02:35:42.412Z,4.20
2023-11-18T02:38:11.875Z,4.10
2023-11-18T02:40:45.321Z,4.10
2023-11-18T02:43:12.819Z,4.10
2023-11-18T02:45:41.399Z,4.10
2023-11-18T02:48:08.809Z,4.10
2023-11-18T02:50:39.546Z,4.00
2023-11-18T02:53:06.939Z,4.00
2023-11-18T02:55:34.018Z,4.00
2023-11-18T02:58:06.505Z,4.00
2023-11-18T03:00:34.581Z,4.00
2023-11-18T03:03:01.798Z,4.00
2023-11-18T03:05:28.762Z,4.00
2023-11-18T03:07:59.224Z,4.00
2023-11-18T03:10:26.287Z,4.00
2023-11-18T03:12:55.028Z,3.90
2023-11-18T03:15:23.496Z,3.90
2023-11-18T03:17:52.348Z,3.90
2023-11-18T03:20:21.045Z,3.90
2023-11-18T03:22:48.652Z,3.90
2023-11-18T03:25:16.245Z,3.90
2023-11-18T03:27:44.019Z,3.90
2023-11-18T03:30:11.405Z,3.90
2023-11-18T03:32:39.966Z,3.90
2023-11-18T03:35:09.939Z,3.90
2023-11-18T03:37:40.246Z,4.00
2023-11-18T03:40:14.966Z,4.00
2023-11-18T03:42:48.593Z,4.00
2023-11-18T03:45:22.137Z,4.00
2023-11-18T03:47:51.228Z,4.00
2023-11-18T03:50:18.640Z,4.00
2023-11-18T03:52:45.658Z,4.00
2023-11-18T03:55:12.715Z,4.00
2023-11-18T03:57:40.289Z,4.00
2023-11-18T04:00:07.831Z,4.00
2023-11-18T04:02:39.028Z,4.10
2023-11-18T04:05:06.816Z,4.10
2023-11-18T04:07:33.882Z,4.10
2023-11-18T04:10:01.524Z,4.10
2023-11-18T04:12:28.450Z,4.10
2023-11-18T04:14:55.414Z,4.10
2023-11-18T04:17:22.532Z,4.10
2023-11-18T04:19:49.585Z,4.10
2023-11-18T04:22:16.582Z,4.10
2023-11-18T04:24:45.012Z,4.10
2023-11-18T04:27:11.948Z,4.10
2023-11-18T04:29:39.364Z,4.10
2023-11-18T04:32:07.500Z,4.10
2023-11-18T04:34:37.072Z,4.10
2023-11-18T04:37:05.100Z,4.10
2023-11-18T04:39:36.435Z,4.10
2023-11-18T04:42:03.738Z,4.00
2023-11-18T04:44:32.723Z,4.00
2023-11-18T04:47:00.236Z,4.10
2023-11-18T04:49:27.298Z,4.00
2023-11-18T04:51:54.288Z,4.00
2023-11-18T04:54:21.240Z,4.00
2023-11-18T04:56:49.074Z,4.00
2023-11-18T04:59:16.202Z,4.00
2023-11-18T05:01:43.305Z,4.00
2023-11-18T05:04:10.709Z,4.00
2023-11-18T05:06:37.689Z,4.00
2023-11-18T05:09:08.924Z,4.00
2023-11-18T05:11:36.903Z,4.00
2023-11-18T05:14:08.359Z,4.00
2023-11-18T05:16:35.552Z,3.90
2023-11-18T05:19:02.544Z,4.00
2023-11-18T05:21:29.913Z,3.90
2023-11-18T05:23:56.842Z,3.90
2023-11-18T05:26:23.812Z,3.90
2023-11-18T05:28:51.424Z,3.90
2023-11-18T05:31:18.349Z,3.90
2023-11-18T05:33:52.962Z,3.90
2023-11-18T05:36:27.973Z,3.90
2023-11-18T05:38:55.668Z,3.90
2023-11-18T05:41:29.170Z,3.80
2023-11-18T05:43:58.768Z,3.80
2023-11-18T05:46:30.696Z,3.80
2023-11-18T05:48:58.451Z,3.80
2023-11-18T05:51:27.936Z,3.80
2023-11-18T05:53:54.922Z,3.80
2023-11-18T05:56:26.112Z,3.80
2023-11-18T05:58:56.684Z,3.80
2023-11-18T06:01:25.023Z,3.80
2023-11-18T06:03:52.345Z,3.80
2023-11-18T06:06:23.321Z,3.80
2023-11-18T06:08:52.745Z,3.70
2023-11-18T06:11:20.997Z,3.70
2023-11-18T06:13:50.077Z,3.70
2023-11-18T06:16:22.833Z,3.70
2023-11-18T06:18:57.511Z,3.70
2023-11-18T06:21:29.522Z,3.70
2023-11-18T06:23:56.809Z,3.70
2023-11-18T06:26:27.930Z,3.70
2023-11-18T06:28:56.369Z,3.70
2023-11-18T06:31:24.993Z,3.70
2023-11-18T06:33:52.560Z,3.70
2023-11-18T06:36:23.052Z,3.70
2023-11-18T06:38:51.672Z,3.70
2023-11-18T06:41:21.193Z,3.70
2023-11-18T06:43:57.599Z,3.70
2023-11-18T06:46:30.613Z,3.70
2023-11-18T06:48:58.820Z,3.70
2023-11-18T06:51:28.932Z,3.70
2023-11-18T06:53:56.759Z,3.70
2023-11-18T06:56:28.002Z,3.70
2023-11-18T06:58:55.627Z,3.70
2023-11-18T07:01:22.884Z,3.70
2023-11-18T07:03:53.276Z,3.70
2023-11-18T07:06:24.873Z,3.70
2023-11-18T07:08:52.299Z,3.70
2023-11-18T07:11:19.867Z,3.70
2023-11-18T07:13:47.937Z,3.70
2023-11-18T07:16:15.817Z,3.70
2023-11-18T07:18:45.884Z,3.70
2023-11-18T07:21:12.960Z,3.70
2023-11-18T07:23:39.818Z,3.70
2023-11-18T07:26:07.157Z,3.80
2023-11-18T07:28:34.217Z,3.80
2023-11-18T07:31:05.961Z,3.80
2023-11-18T07:33:33.832Z,3.80
2023-11-18T07:36:01.156Z,3.70
2023-11-18T07:38:28.519Z,3.70
2023-11-18T07:40:57.922Z,3.70
2023-11-18T07:43:25.223Z,3.70
2023-11-18T07:45:54.282Z,3.70
2023-11-18T07:48:22.046Z,3.70
2023-11-18T07:50:49.161Z,3.70
2023-11-18T07:53:17.101Z,3.80
2023-11-18T07:55:44.228Z,3.80
2023-11-18T07:58:12.085Z,3.80
2023-11-18T08:00:43.691Z,3.90
2023-11-18T08:03:14.768Z,4.00
2023-11-18T08:05:46.840Z,4.20
2023-11-18T08:08:14.647Z,4.30
2023-11-18T08:10:42.324Z,4.40
2023-11-18T08:13:10.488Z,4.40
2023-11-18T08:15:43.195Z,4.50
2023-11-18T08:18:11.568Z,4.50
2023-11-18T08:20:38.862Z,4.60
2023-11-18T08:23:06.211Z,4.60
2023-11-18T08:25:37.207Z,4.70
2023-11-18T08:28:06.069Z,4.80
2023-11-18T08:30:35.317Z,4.90
2023-11-18T08:33:06.415Z,5.10
2023-11-18T08:35:33.965Z,5.20
2023-11-18T08:38:02.516Z,5.30
2023-11-18T08:40:30.078Z,5.30
2023-11-18T08:42:57.516Z,5.30
2023-11-18T08:45:29.371Z,5.40
2023-11-18T08:48:02.623Z,5.40
2023-11-18T08:50:30.081Z,5.60
2023-11-18T08:53:00.533Z,5.60
2023-11-18T08:55:43.827Z,5.60
2023-11-18T08:58:20.362Z,5.70
2023-11-18T09:00:55.833Z,5.80
2023-11-18T09:03:36.291Z,5.90
2023-11-18T09:06:08.156Z,6.00
2023-11-18T09:08:44.060Z,6.10
2023-11-18T09:11:18.453Z,6.20
2023-11-18T09:13:48.598Z,6.20
2023-11-18T09:16:16.815Z,6.30
2023-11-18T09:18:48.132Z,6.30
2023-11-18T09:21:16.847Z,6.40
2023-11-18T09:23:46.166Z,6.60
2023-11-18T09:26:13.328Z,6.70
2023-11-18T09:28:40.342Z,6.90
2023-11-18T09:31:12.475Z,7.20
2023-11-18T09:33:46.081Z,7.40
2023-11-18T09:36:13.717Z,7.60
2023-11-18T09:38:41.781Z,7.90
2023-11-18T09:41:12.507Z,8.20
2023-11-18T09:43:46.411Z,8.40
2023-11-18T09:46:23.239Z,8.70
2023-11-18T09:49:00.930Z,9.00
2023-11-18T09:51:31.333Z,9.30
2023-11-18T09:54:07.389Z,9.50
2023-11-18T09:56:40.289Z,9.70
2023-11-18T09:59:36.360Z,9.90
2023-11-18T10:02:11.576Z,10.10
2023-11-18T10:04:40.491Z,10.30
2023-11-18T10:07:12.348Z,10.50
2023-11-18T10:09:40.418Z,10.90
2023-11-18T10:12:13.615Z,11.30
2023-11-18T10:14:45.151Z,11.60
2023-11-18T10:17:15.911Z,11.80
2023-11-18T10:20:14.030Z,11.90
2023-11-18T10:22:42.282Z,12.00
2023-11-18T10:25:09.375Z,12.30
2023-11-18T10:27:36.300Z,12.50
2023-11-18T10:30:19.998Z,12.50
2023-11-18T10:33:07.207Z,12.30
2023-11-18T10:35:35.708Z,12.10
2023-11-18T10:38:08.510Z,11.90
2023-11-18T10:40:38.737Z,11.80
2023-11-18T10:43:11.149Z,11.70
2023-11-18T10:45:42.309Z,11.50
2023-11-18T10:48:14.220Z,11.40
2023-11-18T10:50:41.202Z,11.20
2023-11-18T10:53:12.526Z,11.00
2023-11-18T10:55:41.350Z,10.80
2023-11-18T10:58:11.768Z,10.70
2023-11-18T11:00:50.058Z,10.60
2023-11-18T11:03:17.647Z,10.60
2023-11-18T11:05:45.142Z,10.50
2023-11-18T11:08:26.845Z,10.30
2023-11-18T11:11:04.686Z,10.10
2023-11-18T11:13:33.941Z,9.90
2023-11-18T11:16:07.141Z,9.80
2023-11-18T11:18:38.863Z,9.70
2023-11-18T11:21:16.520Z,9.60
2023-11-18T11:24:06.350Z,9.70
2023-11-18T11:27:24.573Z,9.70
2023-11-18T11:30:11.331Z,9.80
2023-11-18T11:33:13.362Z,9.70
2023-11-18T11:35:46.472Z,9.70
2023-11-18T11:38:20.008Z,9.70
2023-11-18T11:40:48.857Z,9.60
2023-11-18T11:43:22.418Z,9.60
2023-11-18T11:45:55.680Z,9.50
2023-11-18T11:48:30.039Z,9.50
2023-11-18T11:51:31.307Z,9.40
2023-11-18T11:54:16.646Z,9.40
2023-11-18T11:57:02.672Z,9.30
2023-11-18T12:00:07.905Z,9.20
2023-11-18T12:02:36.994Z,9.10
2023-11-18T12:05:08.417Z,9.00
2023-11-18T12:07:40.189Z,9.00
2023-11-18T12:10:14.812Z,9.10
2023-11-18T12:12:43.375Z,9.10
2023-11-18T12:15:13.686Z,9.10
2023-11-18T12:17:58.965Z,9.10
2023-11-18T12:20:48.786Z,9.20
2023-11-18T12:23:16.968Z,9.20
2023-11-18T12:25:50.445Z,9.20
2023-11-18T12:28:18.133Z,9.10
2023-11-18T12:30:58.793Z,9.10
2023-11-18T12:33:28.466Z,9.10
2023-11-18T12:36:43.992Z,9.00
2023-11-18T12:39:14.864Z,9.00
2023-11-18T12:41:42.528Z,8.80
2023-11-18T12:44:36.507Z,8.80
2023-11-18T12:47:15.776Z,8.70
2023-11-18T12:49:43.672Z,8.60
2023-11-18T12:52:13.292Z,8.60
2023-11-18T12:54:44.905Z,8.50
2023-11-18T12:57:15.526Z,8.50
2023-11-18T12:59:43.688Z,8.60
2023-11-18T13:02:19.457Z,8.60
2023-11-18T13:04:54.302Z,8.70
2023-11-18T13:07:24.384Z,8.70
2023-11-18T13:09:52.104Z,8.70
2023-11-18T13:12:21.503Z,8.70
2023-11-18T13:14:48.782Z,8.70
2023-11-18T13:17:17.350Z,8.50
2023-11-18T13:19:45.755Z,8.40
2023-11-18T13:22:16.875Z,8.30
2023-11-18T13:24:47.603Z,8.30
2023-11-18T13:27:17.700Z,8.30
2023-11-18T13:29:51.916Z,8.30
2023-11-18T13:32:24.434Z,8.20
2023-11-18T13:34:53.029Z,8.20
2023-11-18T13:37:23.730Z,8.20
2023-11-18T13:39:59.480Z,8.20
2023-11-18T13:42:29.463Z,8.20
2023-11-18T13:45:12.764Z,8.10
2023-11-18T13:47:40.033Z,8.10
2023-11-18T13:50:11.679Z,8.00
2023-11-18T13:52:41.464Z,8.00
2023-11-18T13:55:09.964Z,7.90
2023-11-18T13:57:37.842Z,7.90
2023-11-18T14:00:07.934Z,7.80
2023-11-18T14:02:37.439Z,7.70
2023-11-18T14:05:06.796Z,7.60
2023-11-18T14:07:39.640Z,7.50
2023-11-18T14:10:09.630Z,7.50
2023-11-18T14:12:36.531Z,7.30
2023-11-18T14:15:04.833Z,7.20
2023-11-18T14:17:32.193Z,7.20
2023-11-18T14:19:59.544Z,7.00
2023-11-18T14:22:26.487Z,6.90
2023-11-18T14:24:55.017Z,6.80
2023-11-18T14:27:21.966Z,6.70
2023-11-18T14:29:48.928Z,6.60
2023-11-18T14:32:15.947Z,6.60
2023-11-18T14:34:43.389Z,6.50
2023-11-18T14:37:10.270Z,6.40
2023-11-18T14:39:37.994Z,6.30
2023-11-18T14:42:05.409Z,6.20
2023-11-18T14:44:32.564Z,6.10
2023-11-18T14:47:01.443Z,6.10
2023-11-18T14:49:28.451Z,6.00
2023-11-18T14:51:55.605Z,6.00
2023-11-18T14:54:22.510Z,6.00
2023-11-18T14:56:50.296Z,5.90
2023-11-18T14:59:17.387Z,5.90
2023-11-18T15:01:45.414Z,5.80
2023-11-18T15:04:13.349Z,5.70
2023-11-18T15:06:42.180Z,5.70
2023-11-18T15:09:12.215Z,5.70
2023-11-18T15:11:39.380Z,5.60
2023-11-18T15:14:08.893Z,5.70
2023-11-18T15:16:36.158Z,5.60
2023-11-18T15:19:03.240Z,5.60
2023-11-18T15:21:31.071Z,5.60
2023-11-18T15:24:02.837Z,5.50
2023-11-18T15:26:32.344Z,5.40
2023-11-18T15:29:00.394Z,5.40
2023-11-18T15:31:30.535Z,5.40
2023-11-18T15:33:58.201Z,5.40
2023-11-18T15:36:26.675Z,5.30
2023-11-18T15:38:53.650Z,5.30
2023-11-18T15:41:21.296Z,5.30
2023-11-18T15:43:49.665Z,5.30
2023-11-18T15:46:16.610Z,5.20
2023-11-18T15:48:43.484Z,5.20
2023-11-18T15:51:14.388Z,5.20
2023-11-18T15:53:41.629Z,5.20
2023-11-18T15:56:10.173Z,5.20
2023-11-18T15:58:37.234Z,5.10
2023-11-18T16:01:04.988Z,5.10
2023-11-18T16:03:32.027Z,5.10
2023-11-18T16:05:58.963Z,5.10
2023-11-18T16:08:27.064Z,5.10
2023-11-18T16:10:55.465Z,5.10
2023-11-18T16:13:23.044Z,5.20
2023-11-18T16:15:50.044Z,5.10
2023-11-18T16:18:17.172Z,5.10
2023-11-18T16:20:44.198Z,5.10
2023-11-18T16:23:11.755Z,5.10
2023-11-18T16:25:39.158Z,5.10
2023-11-18T16:28:08.839Z,5.10
2023-11-18T16:30:36.299Z,5.10
2023-11-18T16:33:05.227Z,5.10
2023-11-18T16:35:32.663Z,5.10
2023-11-18T16:38:01.746Z,5.10
2023-11-18T16:40:29.884Z,5.10
2023-11-18T16:42:57.916Z,5.10
2023-11-18T16:45:26.252Z,5.10
2023-11-18T16:47:54.568Z,5.10
2023-11-18T16:50:24.774Z,5.10
2023-11-18T16:52:52.399Z,5.00
2023-11-18T16:55:22.191Z,5.10
2023-11-18T16:57:53.615Z,5.00
2023-11-18T17:00:25.371Z,5.00
2023-11-18T17:03:00.052Z,5.00
2023-11-18T17:05:32.544Z,5.00
2023-11-18T17:08:01.333Z,5.00
2023-11-18T17:10:28.955Z,5.00
2023-11-18T17:12:57.583Z,5.00
2023-11-18T17:15:25.006Z,5.00
2023-11-18T17:17:55.129Z,5.00
2023-11-18T17:20:22.382Z,5.00
2023-11-18T17:22:50.066Z,5.00
2023-11-18T17:25:18.097Z,5.00
2023-11-18T17:27:46.763Z,5.00
2023-11-18T17:30:17.536Z,5.00
2023-11-18T17:32:49.147Z,5.00
2023-11-18T17:35:17.712Z,5.00
2023-11-18T17:37:48.547Z,5.00
2023-11-18T17:40:16.821Z,5.00
2023-11-18T17:42:45.062Z,5.00
2023-11-18T17:45:13.616Z,5.00
2023-11-18T17:47:45.387Z,5.00
2023-11-18T17:50:15.131Z,5.00
2023-11-18T17:52:47.766Z,5.00
2023-11-18T17:55:18.273Z,5.00
2023-11-18T17:57:45.346Z,5.00
2023-11-18T18:00:13.996Z,5.00
2023-11-18T18:02:42.864Z,5.00
2023-11-18T18:05:10.729Z,5.00
2023-11-18T18:07:37.673Z,5.00
2023-11-18T18:10:07.447Z,5.00
2023-11-18T18:12:34.652Z,5.00
2023-11-18T18:15:01.753Z,5.00
2023-11-18T18:17:28.862Z,5.00
2023-11-18T18:19:55.864Z,5.00
2023-11-18T18:22:22.870Z,4.90
2023-11-18T18:24:49.768Z,5.00
2023-11-18T18:27:17.914Z,5.00
2023-11-18T18:29:44.947Z,5.00
2023-11-18T18:32:11.959Z,5.00
2023-11-18T18:34:38.895Z,5.00
2023-11-18T18:37:05.914Z,5.00
2023-11-18T18:39:32.835Z,5.00
2023-11-18T18:42:00.240Z,5.00
2023-11-18T18:44:28.085Z,5.00
2023-11-18T18:46:57.945Z,5.00
2023-11-18T18:49:24.906Z,5.10
2023-11-18T18:51:52.403Z,5.00
2023-11-18T18:54:19.333Z,5.10
2023-11-18T18:56:46.304Z,5.10
2023-11-18T18:59:13.292Z,5.10
2023-11-18T19:01:40.986Z,5.10
2023-11-18T19:04:09.363Z,5.10
2023-11-18T19:06:37.370Z,5.10
2023-11-18T19:09:05.425Z,5.10
2023-11-18T19:11:32.595Z,5.00
2023-11-18T19:14:00.084Z,5.00
2023-11-18T19:16:27.542Z,5.00
2023-11-18T19:18:58.497Z,5.00
2023-11-18T19:21:26.231Z,5.00
2023-11-18T19:23:53.351Z,5.00
2023-11-18T19:26:24.602Z,5.00
2023-11-18T19:28:51.609Z,5.00
2023-11-18T19:31:18.584Z,5.00
2023-11-18T19:33:45.837Z,4.90
2023-11-18T19:36:13.483Z,4.90
2023-11-18T19:38:40.789Z,4.90
2023-11-18T19:41:07.773Z,4.90
2023-11-18T19:43:34.982Z,4.90
2023-11-18T19:46:02.543Z,4.90
2023-11-18T19:48:32.784Z,4.90
2023-11-18T19:51:00.015Z,4.90
2023-11-18T19:53:27.417Z,4.90
2023-11-18T19:55:54.481Z,4.90
2023-11-18T19:58:23.366Z,4.90
2023-11-18T20:00:54.150Z,4.90
2023-11-18T20:03:24.281Z,4.90
2023-11-18T20:05:53.452Z,4.90
2023-11-18T20:08:21.076Z,4.90
2023-11-18T20:10:48.400Z,4.90
2023-11-18T20:13:16.151Z,4.90
2023-11-18T20:15:43.365Z,4.90
2023-11-18T20:18:13.130Z,4.90
2023-11-18T20:20:40.491Z,4.90
2023-11-18T20:23:07.632Z,4.90
2023-11-18T20:25:35.182Z,4.90
2023-11-18T20:28:03.453Z,4.90
2023-11-18T20:30:30.804Z,4.90
2023-11-18T20:32:58.662Z,4.90
2023-11-18T20:35:25.951Z,4.90
2023-11-18T20:37:53.403Z,4.90
2023-11-18T20:40:23.267Z,5.00
2023-11-18T20:42:51.613Z,5.00
2023-11-18T20:45:19.417Z,5.00
2023-11-18T20:47:47.571Z,5.00
2023-11-18T20:50:16.309Z,5.00
2023-11-18T20:52:43.988Z,5.00
2023-11-18T20:55:11.479Z,5.00
2023-11-18T20:57:39.055Z,5.00
2023-11-18T21:00:08.589Z,5.10
2023-11-18T21:02:36.527Z,5.10
2023-11-18T21:05:06.655Z,5.10
2023-11-18T21:07:34.172Z,5.10
2023-11-18T21:10:01.256Z,5.00
2023-11-18T21:12:28.287Z,5.10
2023-11-18T21:14:55.306Z,5.10
2023-11-18T21:17:26.495Z,5.10
2023-11-18T21:19:54.143Z,5.10
2023-11-18T21:22:21.339Z,5.10
2023-11-18T21:24:48.288Z,5.10
2023-11-18T21:27:15.962Z,5.10
2023-11-18T21:29:44.313Z,5.10
2023-11-18T21:32:12.352Z,5.10
2023-11-18T21:34:41.919Z,5.10
2023-11-18T21:37:12.390Z,5.10
2023-11-18T21:39:40.732Z,5.10
2023-11-18T21:42:09.205Z,5.10
2023-11-18T21:44:36.960Z,5.10
2023-11-18T21:47:04.761Z,5.10
2023-11-18T21:49:32.908Z,5.10
2023-11-18T21:52:00.695Z,5.10
2023-11-18T21:54:31.756Z,5.10
2023-11-18T21:56:58.978Z,5.10
2023-11-18T21:59:27.403Z,5.10
2023-11-18T22:01:56.076Z,5.10
2023-11-18T22:04:23.502Z,5.10
2023-11-18T22:06:53.535Z,5.20
2023-11-18T22:09:25.049Z,5.20
2023-11-18T22:11:52.628Z,5.20
2023-11-18T22:14:19.802Z,5.20
2023-11-18T22:16:47.188Z,5.20
2023-11-18T22:19:16.530Z,5.20
2023-11-18T22:21:44.319Z,5.20
2023-11-18T22:24:11.565Z,5.30
2023-11-18T22:26:44.583Z,5.30
2023-11-18T22:29:12.861Z,5.30
2023-11-18T22:31:40.678Z,5.40
2023-11-18T22:34:07.683Z,5.40
2023-11-18T22:36:36.051Z,5.40
2023-11-18T22:39:03.111Z,5.40
2023-11-18T22:41:30.075Z,5.50
2023-11-18T22:43:56.976Z,5.50
2023-11-18T22:46:23.884Z,5.50
2023-11-18T22:48:51.403Z,5.60
2023-11-18T22:51:18.360Z,5.60
2023-11-18T22:53:46.052Z,5.60
2023-11-18T22:56:15.530Z,5.70
2023-11-18T22:58:42.910Z,5.70
2023-11-18T23:01:12.189Z,5.70
2023-11-18T23:03:40.056Z,5.70
2023-11-18T23:06:10.787Z,5.70
2023-11-18T23:08:38.144Z,5.80
2023-11-18T23:11:05.663Z,5.80
2023-11-18T23:13:32.615Z,5.80
2023-11-18T23:16:01.914Z,5.80
2023-11-18T23:18:30.170Z,5.90
2023-11-18T23:20:58.979Z,5.90
2023-11-18T23:23:26.106Z,5.90
2023-11-18T23:25:53.288Z,5.90
2023-11-18T23:28:20.392Z,5.90
2023-11-18T23:30:47.631Z,5.90
2023-11-18T23:33:14.597Z,5.90
2023-11-18T23:35:41.871Z,5.90
2023-11-18T23:38:08.933Z,5.90
2023-11-18T23:40:36.243Z,5.90
2023-11-18T23:43:03.382Z,6.00
2023-11-18T23:45:32.201Z,6.00
2023-11-18T23:47:59.348Z,6.00
2023-11-18T23:50:28.418Z,6.10
2023-11-18T23:52:55.471Z,6.10
2023-11-18T23:55:25.351Z,6.10
2023-11-18T23:57:52.744Z,6.10
